Time;durP1;ratioP1;P1;durP2;ratioP2;P2;SDS_P1;SDS_P2;PMS_P1;PMS_P2;Temp;Humidity;BMP_temperature;BMP_pressure;BME280_temperature;BME280_humidity;BME280_pressure;Samples;Min_cycle;Max_cycle;Signal;HPM_P1;HPM_P2
2022/01/06 00:00:15;;;;;;;;;;;;;;;;;;2102699;28;1784;-75
2022/01/06 00:01:18;;;;;;;;;;;;;;;;;;2102152;28;1326;-74
2022/01/06 00:02:19;;;;;;;;;;;;;;;;;;2103783;28;1374;-74
2022/01/06 00:03:24;;;;;;;;;;;;;;;;;;2102193;28;1667;-75
2022/01/06 00:04:24;;;;;;;;;;;;;;;;;;2101747;28;1240;-74
2022/01/06 00:05:26;;;;;;;;;;;;;;;;;;2103790;28;1303;-75
2022/01/06 00:06:29;;;;;;;;;;;;;;;;;;2102823;28;1752;-74
2022/01/06 00:07:31;;;;;;;;;;;;;;;;;;2102198;28;1910;-74
2022/01/06 00:08:33;;;;;;;;;;;;;;;;;;2102892;28;1262;-74
2022/01/06 00:09:36;;;;;;;;;;;;;;;;;;2104224;28;1734;-75
2022/01/06 00:10:39;;;;;;;;;;;;;;;;;;2101446;28;1362;-75
2022/01/06 00:11:42;;;;;;;;;;;;;;;;;;2102081;28;1525;-75
2022/01/06 00:12:47;;;;;;;;;;;;;;;;;;2104479;28;1923;-74
2022/01/06 00:13:55;;;;;;;;;;;;;;;;;;2102278;28;1380;-75
2022/01/06 00:15:02;;;;;;;;;;;;;;;;;;2101324;28;1303;-74
2022/01/06 00:16:13;;;;;;;;;;;;;;;;;;2102790;28;1373;-74
2022/01/06 00:17:21;;;;;;;;;;;;;;;;;;2103508;28;1535;-74
2022/01/06 00:18:39;;;;;;;;;;;;;;;;;;2101514;28;1747;-74
2022/01/06 00:23:46;;;;;;;;;;;;;;;;;;2102000;28;1390;-75
2022/01/06 00:24:48;;;;;;;;;;;;;;;;;;2103806;28;1948;-75
2022/01/06 00:25:53;;;;;;;;;;;;;;;;;;2101270;28;1330;-74
2022/01/06 00:26:56;;;;;;;;;;;;;;;;;;2105140;28;1921;-74
2022/01/06 00:27:57;;;;;;;;;;;;;;;;;;2096866;28;1988;-75
2022/01/06 00:28:58;;;;;;;;;;;;;;;;;;2100040;28;1416;-74
2022/01/06 00:30:00;;;;;;;;;;;;;;;;;;2105444;28;1739;-74
2022/01/06 00:31:03;;;;;;;;;;;;;;;;;;2101491;28;1338;-75
2022/01/06 00:32:05;;;;;;;;;;;;;;;;;;2102043;28;1434;-74
2022/01/06 00:33:05;;;;;;;;;;;;;;;;;;2101020;28;1588;-73
2022/01/06 00:34:10;;;;;;;;;;;;;;;;;;2102290;28;1578;-74
2022/01/06 00:35:11;;;;;;;;;;;;;;;;;;2100352;28;1671;-75
2022/01/06 00:36:12;;;;;;;;;;;;;;;;;;2101873;28;1855;-74
2022/01/06 00:37:13;;;;;;;;;;;;;;;;;;2102157;28;1565;-74
2022/01/06 00:38:15;;;;;;;;;;;;;;;;;;2102004;28;1345;-74
2022/01/06 00:39:16;;;;;;;;;;;;;;;;;;2102375;28;1770;-74
2022/01/06 00:40:17;;;;;;;;;;;;;;;;;;2101394;28;1416;-75
2022/01/06 00:41:21;;;;;;;;;;;;;;;;;;2102096;28;1366;-75
2022/01/06 00:42:24;;;;;;;;;;;;;;;;;;2101739;28;1925;-75
2022/01/06 00:43:25;;;;;;;;;;;;;;;;;;2098224;28;1208;-75
2022/01/06 00:44:27;;;;;;;;;;;;;;;;;;2103986;28;1377;-75
2022/01/06 00:45:27;;;;;;;;;;;;;;;;;;2099334;28;1885;-74
2022/01/06 00:46:29;;;;;;;;;;;;;;;;;;2103488;28;1305;-74
2022/01/06 00:47:30;;;;;;;;;;;;;;;;;;2101691;28;1914;-74
2022/01/06 00:48:31;;;;;;;;;;;;;;;;;;2103725;28;1731;-74
2022/01/06 00:49:33;;;;;;;;;;;;;;;;;;2102132;28;1448;-75
2022/01/06 00:50:35;;;;;;;;;;;;;;;;;;2102583;28;1385;-74
2022/01/06 00:51:37;;;;;;;;;;;;;;;;;;2100334;28;2020;-74
2022/01/06 00:52:40;;;;;;;;;;;;;;;;;;2100151;28;1366;-74
2022/01/06 00:53:40;;;;;;;;;;;;;;;;;;2101318;28;1416;-74
2022/01/06 00:54:42;;;;;;;;;;;;;;;;;;2099850;28;1799;-74
2022/01/06 00:55:42;;;;;;;;;;;;;;;;;;2100856;28;1433;-74
2022/01/06 00:56:44;;;;;;;;;;;;;;;;;;2101377;28;1413;-74
2022/01/06 00:57:45;;;;;;;;;;;;;;;;;;2101661;28;1928;-74
2022/01/06 00:58:48;;;;;;;;;;;;;;;;;;2103423;28;1318;-76
2022/01/06 00:59:50;;;;;;;;;;;;;;;;;;2101733;28;1388;-76
2022/01/06 01:00:53;;;;;;;;;;;;;;;;;;2103151;28;1353;-76
2022/01/06 01:01:56;;;;;;;;;;;;;;;;;;2104449;28;1434;-75
2022/01/06 01:03:00;;;;;;;;;;;;;;;;;;2105318;28;1605;-75
2022/01/06 01:04:02;;;;;;;;;;;;;;;;;;2103349;28;1462;-74
2022/01/06 01:05:06;;;;;;;;;;;;;;;;;;2109073;28;1326;-75
2022/01/06 01:06:07;;;;;;;;;;;;;;;;;;2101869;28;1937;-75
2022/01/06 01:07:09;;;;;;;;;;;;;;;;;;2106012;28;1437;-75
2022/01/06 01:08:12;;;;;;;;;;;;;;;;;;2101881;28;1973;-75
2022/01/06 01:09:14;;;;;;;;;;;;;;;;;;2101795;28;1676;-75
2022/01/06 01:10:15;;;;;;;;;;;;;;;;;;2103190;28;1323;-74
2022/01/06 01:11:17;;;;;;;;;;;;;;;;;;2101857;28;1342;-74
2022/01/06 01:12:18;;;;;;;;;;;;;;;;;;2105223;28;1650;-74
2022/01/06 01:13:27;;;;;;;;;;;;;;;;;;2106059;28;1584;-74
2022/01/06 01:14:32;;;;;;;;;;;;;;;;;;2101498;28;1387;-75
2022/01/06 01:15:34;;;;;;;;;;;;;;;;;;2102362;28;1785;-74
2022/01/06 01:16:35;;;;;;;;;;;;;;;;;;2106953;28;906;-74
2022/01/06 01:17:38;;;;;;;;;;;;;;;;;;2106736;28;1027;-74
2022/01/06 01:18:45;;;;;;;;;;;;;;;;;;2105374;28;1830;-74
2022/01/06 01:19:46;;;;;;;;;;;;;;;;;;2106922;28;846;-74
2022/01/06 01:20:48;;;;;;;;;;;;;;;;;;2107079;28;968;-74
2022/01/06 01:21:50;;;;;;;;;;;;;;;;;;2106241;28;1916;-74
2022/01/06 01:22:51;;;;;;;;;;;;;;;;;;2107107;28;884;-74
2022/01/06 01:23:53;;;;;;;;;;;;;;;;;;2106828;28;1076;-74
2022/01/06 01:24:53;;;;;;;;;;;;;;;;;;2098947;28;969;-74
2022/01/06 01:25:55;;;;;;;;;;;;;;;;;;2098731;28;796;-73
2022/01/06 01:26:55;;;;;;;;;;;;;;;;;;2098351;28;1841;-74
2022/01/06 01:27:58;;;;;;;;;;;;;;;;;;2106499;28;1967;-74
2022/01/06 01:28:58;;;;;;;;;;;;;;;;;;2107105;28;874;-73
2022/01/06 01:30:04;;;;;;;;;;;;;;;;;;2106150;28;1889;-74
2022/01/06 01:31:19;;;;;;;;;;;;;;;;;;2098725;28;858;-74
2022/01/06 01:32:27;;;;;;;;;;;;;;;;;;2098651;28;902;-73
2022/01/06 01:33:30;;;;;;;;;;;;;;;;;;2101047;28;2017;-74
2022/01/06 01:34:31;;;;;;;;;;;;;;;;;;2106260;28;977;-74
2022/01/06 01:35:32;;;;;;;;;;;;;;;;;;2107026;28;862;-74
2022/01/06 01:36:35;;;;;;;;;;;;;;;;;;2105973;28;1939;-74
2022/01/06 01:37:37;;;;;;;;;;;;;;;;;;2107078;28;858;-74
2022/01/06 01:38:39;;;;;;;;;;;;;;;;;;2106762;28;891;-74
2022/01/06 01:39:39;;;;;;;;;;;;;;;;;;2099850;28;1842;-74
2022/01/06 01:40:41;;;;;;;;;;;;;;;;;;2098495;28;855;-74
2022/01/06 01:41:41;;;;;;;;;;;;;;;;;;2098733;28;906;-74
2022/01/06 01:42:43;;;;;;;;;;;;;;;;;;2104241;28;1814;-74
2022/01/06 01:43:46;;;;;;;;;;;;;;;;;;2107071;28;787;-74
2022/01/06 01:44:49;;;;;;;;;;;;;;;;;;2106853;28;907;-73
2022/01/06 01:45:56;;;;;;;;;;;;;;;;;;2105639;28;1853;-74
2022/01/06 01:47:01;;;;;;;;;;;;;;;;;;2106856;28;1073;-74
2022/01/06 01:48:06;;;;;;;;;;;;;;;;;;2105913;28;1906;-74
2022/01/06 01:49:16;;;;;;;;;;;;;;;;;;2106966;28;876;-74
2022/01/06 01:50:20;;;;;;;;;;;;;;;;;;2107124;28;891;-74
2022/01/06 01:51:20;;;;;;;;;;;;;;;;;;2106733;28;811;-74
2022/01/06 01:52:23;;;;;;;;;;;;;;;;;;2106978;28;843;-74
2022/01/06 01:53:24;;;;;;;;;;;;;;;;;;2106666;28;1132;-74
2022/01/06 01:54:25;;;;;;;;;;;;;;;;;;2105521;28;1941;-74
2022/01/06 01:55:27;;;;;;;;;;;;;;;;;;2106022;28;1263;-74
2022/01/06 01:56:28;;;;;;;;;;;;;;;;;;2106423;28;864;-74
2022/01/06 01:57:29;;;;;;;;;;;;;;;;;;2101358;28;1996;-73
2022/01/06 01:58:31;;;;;;;;;;;;;;;;;;2098623;28;894;-74
2022/01/06 01:59:31;;;;;;;;;;;;;;;;;;2098594;28;811;-74
2022/01/06 02:00:33;;;;;;;;;;;;;;;;;;2098208;28;1992;-74
2022/01/06 02:01:33;;;;;;;;;;;;;;;;;;2098612;28;1036;-74
2022/01/06 02:02:35;;;;;;;;;;;;;;;;;;2098672;28;1124;-74
2022/01/06 02:03:35;;;;;;;;;;;;;;;;;;2103204;28;1876;-74
2022/01/06 02:04:37;;;;;;;;;;;;;;;;;;2106943;28;938;-73
2022/01/06 02:05:37;;;;;;;;;;;;;;;;;;2106318;28;1088;-74
2022/01/06 02:06:39;;;;;;;;;;;;;;;;;;2106361;28;1802;-74
2022/01/06 02:07:42;;;;;;;;;;;;;;;;;;2108406;28;2004;-74
2022/01/06 02:08:43;;;;;;;;;;;;;;;;;;2108474;28;918;-74
2022/01/06 02:09:44;;;;;;;;;;;;;;;;;;2106956;28;1880;-74
2022/01/06 02:10:45;;;;;;;;;;;;;;;;;;2108537;28;906;-74
2022/01/06 02:11:47;;;;;;;;;;;;;;;;;;2108318;28;879;-74
2022/01/06 02:12:49;;;;;;;;;;;;;;;;;;2106989;28;1825;-74
2022/01/06 02:13:52;;;;;;;;;;;;;;;;;;2108456;28;942;-74
2022/01/06 02:14:52;;;;;;;;;;;;;;;;;;2108146;28;1888;-74
2022/01/06 02:15:54;;;;;;;;;;;;;;;;;;2107521;28;974;-74
2022/01/06 02:16:55;;;;;;;;;;;;;;;;;;2108373;28;1046;-74
2022/01/06 02:17:57;;;;;;;;;;;;;;;;;;2107608;28;1841;-73
2022/01/06 02:18:58;;;;;;;;;;;;;;;;;;2108196;28;893;-74
2022/01/06 02:20:01;;;;;;;;;;;;;;;;;;2108459;28;807;-74
2022/01/06 02:21:01;;;;;;;;;;;;;;;;;;2107091;28;1845;-74
2022/01/06 02:22:03;;;;;;;;;;;;;;;;;;2108346;28;952;-74
2022/01/06 02:23:05;;;;;;;;;;;;;;;;;;2108162;28;771;-74
2022/01/06 02:24:05;;;;;;;;;;;;;;;;;;2107052;28;1926;-74
2022/01/06 02:25:11;;;;;;;;;;;;;;;;;;2108266;28;878;-74
2022/01/06 02:26:13;;;;;;;;;;;;;;;;;;2108346;28;898;-74
2022/01/06 02:27:13;;;;;;;;;;;;;;;;;;2108299;28;779;-73
2022/01/06 02:28:17;;;;;;;;;;;;;;;;;;2108278;28;1965;-74
2022/01/06 02:29:17;;;;;;;;;;;;;;;;;;2108297;28;772;-74
2022/01/06 02:30:19;;;;;;;;;;;;;;;;;;2108380;28;939;-74
2022/01/06 02:31:20;;;;;;;;;;;;;;;;;;2108243;28;864;-73
2022/01/06 02:32:22;;;;;;;;;;;;;;;;;;2108344;28;878;-74
2022/01/06 02:33:24;;;;;;;;;;;;;;;;;;2107366;28;2090;-73
2022/01/06 02:34:25;;;;;;;;;;;;;;;;;;2108296;28;973;-74
2022/01/06 02:35:28;;;;;;;;;;;;;;;;;;2108114;28;902;-74
2022/01/06 02:36:30;;;;;;;;;;;;;;;;;;2108198;28;819;-74
2022/01/06 02:37:30;;;;;;;;;;;;;;;;;;2108088;28;1086;-74
2022/01/06 02:38:32;;;;;;;;;;;;;;;;;;2108208;28;857;-74
2022/01/06 02:39:32;;;;;;;;;;;;;;;;;;2107089;28;2017;-74
2022/01/06 02:40:34;;;;;;;;;;;;;;;;;;2108344;28;1068;-73
2022/01/06 02:41:34;;;;;;;;;;;;;;;;;;2108180;28;906;-74
2022/01/06 02:42:39;;;;;;;;;;;;;;;;;;2106865;28;1936;-74
2022/01/06 02:43:41;;;;;;;;;;;;;;;;;;2108145;28;1094;-74
2022/01/06 02:44:41;;;;;;;;;;;;;;;;;;2108194;28;958;-74
2022/01/06 02:45:43;;;;;;;;;;;;;;;;;;2107473;28;1457;-74
2022/01/06 02:46:43;;;;;;;;;;;;;;;;;;2107677;28;962;-74
2022/01/06 02:47:46;;;;;;;;;;;;;;;;;;2108237;28;890;-74
2022/01/06 02:48:46;;;;;;;;;;;;;;;;;;2106764;28;1983;-74
2022/01/06 02:49:48;;;;;;;;;;;;;;;;;;2108000;28;858;-74
2022/01/06 02:50:51;;;;;;;;;;;;;;;;;;2108123;28;803;-74
2022/01/06 02:51:52;;;;;;;;;;;;;;;;;;2108052;28;997;-74
2022/01/06 02:52:54;;;;;;;;;;;;;;;;;;2108014;28;866;-74
2022/01/06 02:53:54;;;;;;;;;;;;;;;;;;2108003;28;914;-74
2022/01/06 02:54:56;;;;;;;;;;;;;;;;;;2107916;28;1080;-74
2022/01/06 02:55:56;;;;;;;;;;;;;;;;;;2108035;28;890;-73
2022/01/06 02:56:58;;;;;;;;;;;;;;;;;;2107095;28;2089;-74
2022/01/06 02:57:59;;;;;;;;;;;;;;;;;;2107984;28;1069;-74
2022/01/06 02:59:00;;;;;;;;;;;;;;;;;;2107394;28;1167;-74
2022/01/06 03:00:01;;;;;;;;;;;;;;;;;;2107404;28;827;-74
2022/01/06 03:01:03;;;;;;;;;;;;;;;;;;2107950;28;1427;-75
2022/01/06 03:02:04;;;;;;;;;;;;;;;;;;2107949;28;1162;-74
2022/01/06 03:03:05;;;;;;;;;;;;;;;;;;2106742;28;2133;-74
2022/01/06 03:04:06;;;;;;;;;;;;;;;;;;2107909;28;1081;-74
2022/01/06 03:05:08;;;;;;;;;;;;;;;;;;2108120;28;1068;-74
2022/01/06 03:06:09;;;;;;;;;;;;;;;;;;2107954;28;642;-74
2022/01/06 03:07:11;;;;;;;;;;;;;;;;;;2107360;28;1400;-74
2022/01/06 03:08:12;;;;;;;;;;;;;;;;;;2107116;28;1906;-74
2022/01/06 03:09:13;;;;;;;;;;;;;;;;;;2106682;28;1841;-74
2022/01/06 03:10:15;;;;;;;;;;;;;;;;;;2107916;28;1061;-74
2022/01/06 03:11:24;;;;;;;;;;;;;;;;;;2107903;28;995;-74
2022/01/06 03:12:29;;;;;;;;;;;;;;;;;;2107944;28;784;-73
2022/01/06 03:13:30;;;;;;;;;;;;;;;;;;2108028;28;954;-74
2022/01/06 03:14:32;;;;;;;;;;;;;;;;;;2107821;28;918;-74
2022/01/06 03:15:33;;;;;;;;;;;;;;;;;;2107887;28;953;-74
2022/01/06 03:16:34;;;;;;;;;;;;;;;;;;2107453;28;800;-74
2022/01/06 03:17:36;;;;;;;;;;;;;;;;;;2107917;28;981;-74
2022/01/06 03:18:36;;;;;;;;;;;;;;;;;;2106607;28;1861;-74
2022/01/06 03:19:38;;;;;;;;;;;;;;;;;;2107127;28;911;-74
2022/01/06 03:20:39;;;;;;;;;;;;;;;;;;2107276;28;890;-74
2022/01/06 03:21:41;;;;;;;;;;;;;;;;;;2106532;28;1865;-74
2022/01/06 03:22:42;;;;;;;;;;;;;;;;;;2107821;28;930;-74
2022/01/06 03:23:44;;;;;;;;;;;;;;;;;;2107900;28;827;-74
2022/01/06 03:24:44;;;;;;;;;;;;;;;;;;2106470;28;2000;-73
2022/01/06 03:25:46;;;;;;;;;;;;;;;;;;2107937;28;1073;-74
2022/01/06 03:26:47;;;;;;;;;;;;;;;;;;2107734;28;946;-74
2022/01/06 03:27:48;;;;;;;;;;;;;;;;;;2106476;28;2025;-74
2022/01/06 03:28:50;;;;;;;;;;;;;;;;;;2107667;28;1902;-74
2022/01/06 03:29:51;;;;;;;;;;;;;;;;;;2107806;28;1019;-73
2022/01/06 03:30:52;;;;;;;;;;;;;;;;;;2106577;28;1836;-74
2022/01/06 03:31:54;;;;;;;;;;;;;;;;;;2107909;28;934;-74
2022/01/06 03:32:55;;;;;;;;;;;;;;;;;;2107048;28;1912;-73
2022/01/06 03:33:56;;;;;;;;;;;;;;;;;;2099776;28;860;-74
2022/01/06 03:34:57;;;;;;;;;;;;;;;;;;2099420;28;1010;-74
2022/01/06 03:35:58;;;;;;;;;;;;;;;;;;2099041;28;2062;-74
2022/01/06 03:37:02;;;;;;;;;;;;;;;;;;2107720;28;1258;-74
2022/01/06 03:38:03;;;;;;;;;;;;;;;;;;2107686;28;890;-73
2022/01/06 03:39:05;;;;;;;;;;;;;;;;;;2106616;28;2164;-74
2022/01/06 03:40:06;;;;;;;;;;;;;;;;;;2107634;28;894;-74
2022/01/06 03:41:07;;;;;;;;;;;;;;;;;;2107718;28;962;-74
2022/01/06 03:42:08;;;;;;;;;;;;;;;;;;2106313;28;1931;-74
2022/01/06 03:43:10;;;;;;;;;;;;;;;;;;2107739;28;874;-74
2022/01/06 03:44:10;;;;;;;;;;;;;;;;;;2107639;28;984;-74
2022/01/06 03:45:13;;;;;;;;;;;;;;;;;;2106390;28;1904;-73
2022/01/06 03:46:14;;;;;;;;;;;;;;;;;;2107633;28;1426;-74
2022/01/06 03:47:15;;;;;;;;;;;;;;;;;;2107627;28;862;-74
2022/01/06 03:48:16;;;;;;;;;;;;;;;;;;2106155;28;1961;-74
2022/01/06 03:49:17;;;;;;;;;;;;;;;;;;2107659;28;945;-74
2022/01/06 03:50:18;;;;;;;;;;;;;;;;;;2107526;28;983;-74
2022/01/06 03:51:23;;;;;;;;;;;;;;;;;;2106392;28;1842;-74
2022/01/06 03:52:25;;;;;;;;;;;;;;;;;;2107573;28;1135;-74
2022/01/06 03:53:26;;;;;;;;;;;;;;;;;;2107478;28;1020;-73
2022/01/06 03:54:27;;;;;;;;;;;;;;;;;;2106605;28;1830;-74
2022/01/06 03:55:29;;;;;;;;;;;;;;;;;;2107541;28;1092;-74
2022/01/06 03:56:29;;;;;;;;;;;;;;;;;;2107484;28;894;-74
2022/01/06 03:57:31;;;;;;;;;;;;;;;;;;2106267;28;1759;-73
2022/01/06 03:58:31;;;;;;;;;;;;;;;;;;2107497;28;803;-74
2022/01/06 03:59:33;;;;;;;;;;;;;;;;;;2107604;28;1244;-74
2022/01/06 04:00:33;;;;;;;;;;;;;;;;;;2106192;28;2182;-74
2022/01/06 04:01:35;;;;;;;;;;;;;;;;;;2107626;28;1123;-74
2022/01/06 04:02:36;;;;;;;;;;;;;;;;;;2107447;28;955;-74
2022/01/06 04:03:37;;;;;;;;;;;;;;;;;;2106289;28;1869;-74
2022/01/06 04:04:38;;;;;;;;;;;;;;;;;;2107405;28;1164;-74
2022/01/06 04:05:39;;;;;;;;;;;;;;;;;;2107379;28;1158;-74
2022/01/06 04:06:40;;;;;;;;;;;;;;;;;;2106016;28;2049;-74
2022/01/06 04:07:43;;;;;;;;;;;;;;;;;;2107487;28;842;-74
2022/01/06 04:08:44;;;;;;;;;;;;;;;;;;2107202;28;1977;-74
2022/01/06 04:09:46;;;;;;;;;;;;;;;;;;2106259;28;1875;-73
2022/01/06 04:10:47;;;;;;;;;;;;;;;;;;2106590;28;1320;-73
2022/01/06 04:11:50;;;;;;;;;;;;;;;;;;2106770;28;988;-74
2022/01/06 04:12:50;;;;;;;;;;;;;;;;;;2106004;28;1955;-74
2022/01/06 04:13:52;;;;;;;;;;;;;;;;;;2107446;28;1100;-73
2022/01/06 04:14:52;;;;;;;;;;;;;;;;;;2106951;28;1868;-74
2022/01/06 04:15:54;;;;;;;;;;;;;;;;;;2099351;28;953;-74
2022/01/06 04:16:59;;;;;;;;;;;;;;;;;;2098919;28;823;-74
2022/01/06 04:18:00;;;;;;;;;;;;;;;;;;2099161;28;1829;-73
2022/01/06 04:19:02;;;;;;;;;;;;;;;;;;2107493;28;814;-73
2022/01/06 04:20:04;;;;;;;;;;;;;;;;;;2107522;28;866;-74
2022/01/06 04:21:06;;;;;;;;;;;;;;;;;;2107214;28;1134;-74
2022/01/06 04:22:08;;;;;;;;;;;;;;;;;;2107590;28;812;-73
2022/01/06 04:23:10;;;;;;;;;;;;;;;;;;2106530;28;1302;-74
2022/01/06 04:24:11;;;;;;;;;;;;;;;;;;2105399;28;1936;-74
2022/01/06 04:25:12;;;;;;;;;;;;;;;;;;2098998;28;973;-74
2022/01/06 04:26:14;;;;;;;;;;;;;;;;;;2099067;28;949;-74
2022/01/06 04:27:14;;;;;;;;;;;;;;;;;;2100856;28;1917;-74
2022/01/06 04:28:16;;;;;;;;;;;;;;;;;;2106847;28;954;-74
2022/01/06 04:29:16;;;;;;;;;;;;;;;;;;2107021;28;1975;-74
2022/01/06 04:30:18;;;;;;;;;;;;;;;;;;2106608;28;2226;-74
2022/01/06 04:31:18;;;;;;;;;;;;;;;;;;2107315;28;888;-74
2022/01/06 04:32:20;;;;;;;;;;;;;;;;;;2107436;28;1016;-74
2022/01/06 04:33:20;;;;;;;;;;;;;;;;;;2105702;28;1918;-74
2022/01/06 04:34:22;;;;;;;;;;;;;;;;;;2098301;28;1527;-74
2022/01/06 04:35:22;;;;;;;;;;;;;;;;;;2106756;28;969;-74
2022/01/06 04:36:24;;;;;;;;;;;;;;;;;;2105876;28;1866;-74
2022/01/06 04:37:26;;;;;;;;;;;;;;;;;;2107330;28;891;-74
2022/01/06 04:38:29;;;;;;;;;;;;;;;;;;2107309;28;910;-73
2022/01/06 04:39:29;;;;;;;;;;;;;;;;;;2106423;28;1822;-74
2022/01/06 04:40:31;;;;;;;;;;;;;;;;;;2106623;28;696;-73
2022/01/06 04:41:31;;;;;;;;;;;;;;;;;;2106717;28;965;-74
2022/01/06 04:42:33;;;;;;;;;;;;;;;;;;2105961;28;1857;-74
2022/01/06 04:43:34;;;;;;;;;;;;;;;;;;2107405;28;1126;-74
2022/01/06 04:44:35;;;;;;;;;;;;;;;;;;2107142;28;886;-74
2022/01/06 04:45:36;;;;;;;;;;;;;;;;;;2106521;28;1908;-74
2022/01/06 04:46:37;;;;;;;;;;;;;;;;;;2107151;28;1116;-74
2022/01/06 04:47:39;;;;;;;;;;;;;;;;;;2107282;28;966;-74
2022/01/06 04:48:39;;;;;;;;;;;;;;;;;;2105084;28;1905;-74
2022/01/06 04:49:41;;;;;;;;;;;;;;;;;;2106674;28;985;-74
2022/01/06 04:50:42;;;;;;;;;;;;;;;;;;2107103;28;1000;-74
2022/01/06 04:51:43;;;;;;;;;;;;;;;;;;2105919;28;1924;-74
2022/01/06 04:52:44;;;;;;;;;;;;;;;;;;2107241;28;969;-74
2022/01/06 04:53:47;;;;;;;;;;;;;;;;;;2107238;28;1106;-74
2022/01/06 04:54:47;;;;;;;;;;;;;;;;;;2105574;28;1821;-74
2022/01/06 04:55:51;;;;;;;;;;;;;;;;;;2107188;28;807;-74
2022/01/06 04:56:51;;;;;;;;;;;;;;;;;;2107227;28;993;-74
2022/01/06 04:57:53;;;;;;;;;;;;;;;;;;2105808;28;2203;-74
2022/01/06 04:58:53;;;;;;;;;;;;;;;;;;2107210;28;903;-74
2022/01/06 04:59:55;;;;;;;;;;;;;;;;;;2106519;28;1850;-73
2022/01/06 05:00:55;;;;;;;;;;;;;;;;;;2098997;28;974;-74
2022/01/06 05:01:57;;;;;;;;;;;;;;;;;;2098842;28;891;-74
2022/01/06 05:02:57;;;;;;;;;;;;;;;;;;2098644;28;1980;-74
2022/01/06 05:03:59;;;;;;;;;;;;;;;;;;2107133;28;888;-74
2022/01/06 05:04:59;;;;;;;;;;;;;;;;;;2107212;28;792;-74
2022/01/06 05:06:01;;;;;;;;;;;;;;;;;;2106169;28;2427;-74
2022/01/06 05:07:02;;;;;;;;;;;;;;;;;;2107131;28;1043;-74
2022/01/06 05:08:04;;;;;;;;;;;;;;;;;;2107144;28;973;-74
2022/01/06 05:09:06;;;;;;;;;;;;;;;;;;2105068;28;2064;-74
2022/01/06 05:10:08;;;;;;;;;;;;;;;;;;2098689;28;954;-74
2022/01/06 05:11:08;;;;;;;;;;;;;;;;;;2098573;28;831;-72
2022/01/06 05:12:10;;;;;;;;;;;;;;;;;;2098832;28;745;-72
2022/01/06 05:13:10;;;;;;;;;;;;;;;;;;2098747;28;869;-73
2022/01/06 05:14:12;;;;;;;;;;;;;;;;;;2098671;28;1309;-73
2022/01/06 05:15:13;;;;;;;;;;;;;;;;;;2098707;28;886;-73
2022/01/06 05:16:14;;;;;;;;;;;;;;;;;;2098824;28;1017;-73
2022/01/06 05:17:16;;;;;;;;;;;;;;;;;;2098760;28;804;-73
2022/01/06 05:18:16;;;;;;;;;;;;;;;;;;2101135;28;1987;-73
2022/01/06 05:19:18;;;;;;;;;;;;;;;;;;2106995;28;894;-72
2022/01/06 05:20:25;;;;;;;;;;;;;;;;;;2107106;28;1004;-73
2022/01/06 05:21:29;;;;;;;;;;;;;;;;;;2105633;28;1845;-72
2022/01/06 05:22:30;;;;;;;;;;;;;;;;;;2107151;28;930;-72
2022/01/06 05:23:32;;;;;;;;;;;;;;;;;;2106963;28;1101;-72
2022/01/06 05:24:37;;;;;;;;;;;;;;;;;;2106223;28;2026;-72
2022/01/06 05:25:39;;;;;;;;;;;;;;;;;;2106954;28;1064;-72
2022/01/06 05:26:40;;;;;;;;;;;;;;;;;;2107054;28;934;-72
2022/01/06 05:27:42;;;;;;;;;;;;;;;;;;2104965;28;1918;-72
2022/01/06 05:28:42;;;;;;;;;;;;;;;;;;2106330;28;986;-72
2022/01/06 05:29:44;;;;;;;;;;;;;;;;;;2106188;28;1906;-71
2022/01/06 05:30:45;;;;;;;;;;;;;;;;;;2112380;28;1891;-71
2022/01/06 05:31:46;;;;;;;;;;;;;;;;;;2107000;28;927;-71
2022/01/06 05:32:47;;;;;;;;;;;;;;;;;;2106991;28;990;-72
2022/01/06 05:33:49;;;;;;;;;;;;;;;;;;2105707;28;1912;-72
2022/01/06 05:34:49;;;;;;;;;;;;;;;;;;2107002;28;906;-71
2022/01/06 05:35:51;;;;;;;;;;;;;;;;;;2106946;28;1188;-71
2022/01/06 05:36:51;;;;;;;;;;;;;;;;;;2106236;28;1816;-72
2022/01/06 05:37:53;;;;;;;;;;;;;;;;;;2106950;28;884;-72
2022/01/06 05:38:53;;;;;;;;;;;;;;;;;;2106322;28;2003;-70
2022/01/06 05:39:56;;;;;;;;;;;;;;;;;;2099799;28;870;-72
2022/01/06 05:40:57;;;;;;;;;;;;;;;;;;2099817;28;1177;-72
2022/01/06 05:41:58;;;;;;;;;;;;;;;;;;2100184;28;1896;-71
2022/01/06 05:42:59;;;;;;;;;;;;;;;;;;2108661;28;894;-72
2022/01/06 05:44:01;;;;;;;;;;;;;;;;;;2108579;28;924;-72
2022/01/06 05:45:04;;;;;;;;;;;;;;;;;;2107227;28;1912;-73
2022/01/06 05:46:05;;;;;;;;;;;;;;;;;;2108818;28;818;-72
2022/01/06 05:47:06;;;;;;;;;;;;;;;;;;2108611;28;861;-72
2022/01/06 05:48:07;;;;;;;;;;;;;;;;;;2107344;28;1881;-72
2022/01/06 05:49:09;;;;;;;;;;;;;;;;;;2108522;28;2380;-72
2022/01/06 05:50:10;;;;;;;;;;;;;;;;;;2108637;28;1076;-72
2022/01/06 05:51:12;;;;;;;;;;;;;;;;;;2107308;28;2103;-72
2022/01/06 05:52:12;;;;;;;;;;;;;;;;;;2107947;28;839;-72
2022/01/06 05:53:14;;;;;;;;;;;;;;;;;;2107921;28;881;-72
2022/01/06 05:54:14;;;;;;;;;;;;;;;;;;2108514;28;984;-72
2022/01/06 05:55:17;;;;;;;;;;;;;;;;;;2108219;28;1204;-72
2022/01/06 05:56:18;;;;;;;;;;;;;;;;;;2108578;28;874;-72
2022/01/06 05:57:19;;;;;;;;;;;;;;;;;;2107145;28;1836;-71
2022/01/06 05:58:20;;;;;;;;;;;;;;;;;;2108414;28;902;-71
2022/01/06 05:59:21;;;;;;;;;;;;;;;;;;2108523;28;1002;-71
2022/01/06 06:00:22;;;;;;;;;;;;;;;;;;2108519;28;969;-71
2022/01/06 06:01:24;;;;;;;;;;;;;;;;;;2108278;28;937;-71
2022/01/06 06:02:24;;;;;;;;;;;;;;;;;;2108491;28;915;-71
2022/01/06 06:03:27;;;;;;;;;;;;;;;;;;2108449;28;958;-71
2022/01/06 06:04:28;;;;;;;;;;;;;;;;;;2108357;28;870;-71
2022/01/06 06:05:29;;;;;;;;;;;;;;;;;;2108476;28;1166;-71
2022/01/06 06:06:30;;;;;;;;;;;;;;;;;;2107158;28;2032;-71
2022/01/06 06:07:31;;;;;;;;;;;;;;;;;;2108422;28;898;-72
2022/01/06 06:08:32;;;;;;;;;;;;;;;;;;2108405;28;886;-71
2022/01/06 06:09:34;;;;;;;;;;;;;;;;;;2107586;28;1974;-72
2022/01/06 06:10:36;;;;;;;;;;;;;;;;;;2107874;28;811;-71
2022/01/06 06:11:37;;;;;;;;;;;;;;;;;;2108214;28;1161;-71
2022/01/06 06:12:38;;;;;;;;;;;;;;;;;;2108336;28;874;-71
2022/01/06 06:13:39;;;;;;;;;;;;;;;;;;2108183;28;942;-71
2022/01/06 06:14:40;;;;;;;;;;;;;;;;;;2108413;28;885;-72
2022/01/06 06:15:41;;;;;;;;;;;;;;;;;;2107311;28;1836;-71
2022/01/06 06:16:42;;;;;;;;;;;;;;;;;;2108430;28;899;-71
2022/01/06 06:17:43;;;;;;;;;;;;;;;;;;2108467;28;1090;-71
2022/01/06 06:18:44;;;;;;;;;;;;;;;;;;2108395;28;1224;-71
2022/01/06 06:19:45;;;;;;;;;;;;;;;;;;2108159;28;898;-72
2022/01/06 06:20:46;;;;;;;;;;;;;;;;;;2108306;28;1049;-71
2022/01/06 06:21:47;;;;;;;;;;;;;;;;;;2108312;28;848;-72
2022/01/06 06:22:48;;;;;;;;;;;;;;;;;;2108308;28;898;-71
2022/01/06 06:23:50;;;;;;;;;;;;;;;;;;2108069;28;1137;-72
2022/01/06 06:24:51;;;;;;;;;;;;;;;;;;2107343;28;1829;-71
2022/01/06 06:25:53;;;;;;;;;;;;;;;;;;2108659;28;795;-71
2022/01/06 06:26:54;;;;;;;;;;;;;;;;;;2108448;28;1099;-71
2022/01/06 06:27:56;;;;;;;;;;;;;;;;;;2108354;28;934;-72
2022/01/06 06:28:56;;;;;;;;;;;;;;;;;;2108270;28;792;-71
2022/01/06 06:29:58;;;;;;;;;;;;;;;;;;2107352;28;1922;-71
2022/01/06 06:30:59;;;;;;;;;;;;;;;;;;2108062;28;918;-72
2022/01/06 06:32:00;;;;;;;;;;;;;;;;;;2108286;28;894;-72
2022/01/06 06:33:01;;;;;;;;;;;;;;;;;;2106856;28;1892;-71
2022/01/06 06:34:03;;;;;;;;;;;;;;;;;;2108287;28;887;-72
2022/01/06 06:35:04;;;;;;;;;;;;;;;;;;2108183;28;838;-71
2022/01/06 06:36:06;;;;;;;;;;;;;;;;;;2108244;28;1068;-71
2022/01/06 06:37:06;;;;;;;;;;;;;;;;;;2108060;28;969;-71
2022/01/06 06:38:08;;;;;;;;;;;;;;;;;;2108311;28;921;-72
2022/01/06 06:39:08;;;;;;;;;;;;;;;;;;2107386;28;1865;-72
2022/01/06 06:40:11;;;;;;;;;;;;;;;;;;2108362;28;802;-71
2022/01/06 06:41:13;;;;;;;;;;;;;;;;;;2108205;28;1108;-71
2022/01/06 06:42:14;;;;;;;;;;;;;;;;;;2108156;28;1475;-71
2022/01/06 06:43:15;;;;;;;;;;;;;;;;;;2108082;28;976;-71
2022/01/06 06:44:16;;;;;;;;;;;;;;;;;;2108120;28;1069;-71
2022/01/06 06:45:17;;;;;;;;;;;;;;;;;;2108159;28;906;-70
2022/01/06 06:46:19;;;;;;;;;;;;;;;;;;2108112;28;937;-71
2022/01/06 06:47:19;;;;;;;;;;;;;;;;;;2108166;28;602;-71
2022/01/06 06:48:22;;;;;;;;;;;;;;;;;;2106880;28;1837;-71
2022/01/06 06:49:22;;;;;;;;;;;;;;;;;;2108013;28;1957;-71
2022/01/06 06:50:24;;;;;;;;;;;;;;;;;;2108114;28;906;-71
2022/01/06 06:51:25;;;;;;;;;;;;;;;;;;2106370;28;1910;-71
2022/01/06 06:52:26;;;;;;;;;;;;;;;;;;2108296;28;974;-71
2022/01/06 06:53:27;;;;;;;;;;;;;;;;;;2108098;28;898;-71
2022/01/06 06:54:28;;;;;;;;;;;;;;;;;;2106723;28;2160;-70
2022/01/06 06:55:29;;;;;;;;;;;;;;;;;;2107931;28;1210;-70
2022/01/06 06:56:32;;;;;;;;;;;;;;;;;;2108128;28;978;-71
2022/01/06 06:57:33;;;;;;;;;;;;;;;;;;2106697;28;1940;-71
2022/01/06 06:58:35;;;;;;;;;;;;;;;;;;2108185;28;962;-71
2022/01/06 06:59:35;;;;;;;;;;;;;;;;;;2108051;28;795;-71
2022/01/06 07:00:37;;;;;;;;;;;;;;;;;;2106569;28;1853;-71
2022/01/06 07:01:37;;;;;;;;;;;;;;;;;;2108035;28;1071;-71
2022/01/06 07:02:39;;;;;;;;;;;;;;;;;;2108082;28;1101;-71
2022/01/06 07:03:40;;;;;;;;;;;;;;;;;;2106562;28;1868;-71
2022/01/06 07:04:42;;;;;;;;;;;;;;;;;;2108056;28;958;-71
2022/01/06 07:05:42;;;;;;;;;;;;;;;;;;2108044;28;846;-71
2022/01/06 07:06:44;;;;;;;;;;;;;;;;;;2106630;28;1896;-71
2022/01/06 07:07:44;;;;;;;;;;;;;;;;;;2107982;28;1002;-71
2022/01/06 07:08:46;;;;;;;;;;;;;;;;;;2108087;28;799;-71
2022/01/06 07:09:46;;;;;;;;;;;;;;;;;;2107783;28;1968;-71
2022/01/06 07:10:48;;;;;;;;;;;;;;;;;;2107961;28;930;-71
2022/01/06 07:11:50;;;;;;;;;;;;;;;;;;2108107;28;903;-71
2022/01/06 07:12:51;;;;;;;;;;;;;;;;;;2107944;28;1069;-70
2022/01/06 07:13:52;;;;;;;;;;;;;;;;;;2107971;28;1113;-71
2022/01/06 07:14:53;;;;;;;;;;;;;;;;;;2107790;28;1718;-71
2022/01/06 07:15:55;;;;;;;;;;;;;;;;;;2099613;28;1153;-71